Time;durP1;ratioP1;P1;durP2;ratioP2;P2;SDS_P1;SDS_P2;PMS_P1;PMS_P2;Temp;Humidity;BMP_temperature;BMP_pressure;BME280_temperature;BME280_humidity;BME280_pressure;Samples;Min_cycle;Max_cycle;Signal;HPM_P1;HPM_P2
2023/09/05 00:00:12;;;;;;;4.60;4.03;;;21.40;99.90;;;;;;5066106;28;20751;-80
2023/09/05 00:02:38;;;;;;;4.37;3.73;;;21.30;99.90;;;;;;5064717;28;20406;-85
2023/09/05 00:05:07;;;;;;;3.57;3.27;;;21.30;99.90;;;;;;5065780;28;20472;-80
2023/09/05 00:07:35;;;;;;;4.13;3.73;;;21.30;99.90;;;;;;5081601;28;20590;-79
2023/09/05 00:10:03;;;;;;;3.30;3.07;;;21.30;99.90;;;;;;5064623;28;21001;-86
2023/09/05 00:12:30;;;;;;;3.57;3.27;;;21.20;99.90;;;;;;5064340;28;20991;-86
2023/09/05 00:14:56;;;;;;;4.60;3.97;;;21.20;99.90;;;;;;5064596;28;20896;-85
2023/09/05 00:17:22;;;;;;;4.57;3.30;;;21.20;99.90;;;;;;5081267;28;20413;-86
2023/09/05 00:19:49;;;;;;;4.50;4.10;;;21.20;99.90;;;;;;5064443;28;20446;-85
2023/09/05 00:22:15;;;;;;;4.50;3.63;;;21.20;99.90;;;;;;5063440;28;20184;-80
2023/09/05 00:24:41;;;;;;;5.07;3.93;;;21.10;99.90;;;;;;5065743;28;20445;-86
2023/09/05 00:27:11;;;;;;;4.40;4.00;;;21.10;99.90;;;;;;5064173;28;20766;-85
2023/09/05 00:29:38;;;;;;;3.60;3.30;;;21.10;99.90;;;;;;5064611;28;20489;-86
2023/09/05 00:32:04;;;;;;;3.60;3.30;;;21.10;99.90;;;;;;5065825;28;20402;-80
2023/09/05 00:34:36;;;;;;;4.40;4.00;;;21.10;99.90;;;;;;5064461;28;21053;-80
2023/09/05 00:37:07;;;;;;;3.97;3.50;;;21.10;99.90;;;;;;5063972;28;20418;-85
2023/09/05 00:39:34;;;;;;;5.70;3.53;;;21.00;99.90;;;;;;5065975;28;20631;-79
2023/09/05 00:42:05;;;;;;;4.17;3.77;;;21.00;99.90;;;;;;5064826;28;20413;-85
2023/09/05 00:44:31;;;;;;;5.03;4.30;;;21.00;99.90;;;;;;5065872;28;20461;-79
2023/09/05 00:46:59;;;;;;;4.60;4.20;;;21.00;99.90;;;;;;5063858;28;20826;-80
2023/09/05 00:49:27;;;;;;;3.87;3.57;;;21.00;99.90;;;;;;5063857;28;20637;-80
2023/09/05 00:51:59;;;;;;;3.83;3.50;;;20.90;99.90;;;;;;5065778;28;20809;-80
2023/09/05 00:54:25;;;;;;;4.57;4.07;;;20.90;99.90;;;;;;5065500;28;20447;-85
2023/09/05 00:56:52;;;;;;;4.43;4.03;;;20.90;99.90;;;;;;5080710;28;20446;-85
2023/09/05 00:59:19;;;;;;;4.23;3.83;;;20.90;99.90;;;;;;5065526;28;20518;-80
2023/09/05 01:01:44;;;;;;;4.80;4.27;;;20.90;99.90;;;;;;5065288;28;20409;-85
2023/09/05 01:04:10;;;;;;;4.53;3.70;;;20.80;99.90;;;;;;5063799;28;20429;-86
2023/09/05 01:06:51;;;;;;;4.90;4.50;;;20.80;99.90;;;;;;5067170;28;20884;-80
2023/09/05 01:09:40;;;;;;;4.10;3.70;;;20.80;99.90;;;;;;5067767;28;20483;-83
2023/09/05 01:12:07;;;;;;;4.57;3.63;;;20.80;99.90;;;;;;5067792;28;20422;-79
2023/09/05 01:14:33;;;;;;;4.37;3.97;;;20.70;99.90;;;;;;5069800;28;20441;-80
2023/09/05 01:17:01;;;;;;;5.33;3.60;;;20.70;99.90;;;;;;5068714;28;20929;-84
2023/09/05 01:19:29;;;;;;;4.20;3.80;;;20.70;99.90;;;;;;5069541;28;20575;-85
2023/09/05 01:22:13;;;;;;;4.07;3.77;;;20.70;99.90;;;;;;5067575;28;20918;-86
2023/09/05 01:24:43;;;;;;;3.60;3.30;;;20.70;99.90;;;;;;5067356;28;20453;-81
2023/09/05 01:27:11;;;;;;;4.13;3.73;;;20.60;99.90;;;;;;5068542;28;20441;-86
2023/09/05 01:29:39;;;;;;;5.37;4.20;;;20.60;99.90;;;;;;5067888;28;20557;-87
2023/09/05 01:32:07;;;;;;;4.87;3.83;;;20.60;99.90;;;;;;5067410;28;20417;-86
2023/09/05 01:34:33;;;;;;;4.17;3.60;;;20.60;99.90;;;;;;5067620;28;20469;-87
2023/09/05 01:36:58;;;;;;;4.47;3.93;;;20.50;99.90;;;;;;5067248;28;20409;-81
2023/09/05 01:39:24;;;;;;;4.10;3.73;;;20.50;99.90;;;;;;5069306;28;20780;-81
2023/09/05 01:41:50;;;;;;;4.33;3.93;;;20.50;99.90;;;;;;5083927;28;20187;-80
2023/09/05 01:44:16;;;;;;;4.60;4.00;;;20.50;99.90;;;;;;5069485;28;20273;-86
2023/09/05 01:46:42;;;;;;;4.00;3.60;;;20.50;99.90;;;;;;5069239;28;20906;-85
2023/09/05 01:49:07;;;;;;;5.03;4.00;;;20.50;99.90;;;;;;5067038;28;20277;-86
2023/09/05 01:51:33;;;;;;;4.17;3.77;;;20.50;99.90;;;;;;5084851;28;20295;-80
2023/09/05 01:53:59;;;;;;;4.20;3.80;;;20.50;99.90;;;;;;5066813;28;20639;-78
2023/09/05 01:56:25;;;;;;;3.50;3.20;;;20.40;99.90;;;;;;5068424;28;20467;-80
2023/09/05 01:58:50;;;;;;;4.57;4.17;;;20.40;99.90;;;;;;5067199;28;20181;-85
2023/09/05 02:01:16;;;;;;;4.40;4.00;;;20.30;99.90;;;;;;5068883;28;20593;-86
2023/09/05 02:03:42;;;;;;;4.70;4.13;;;20.30;99.90;;;;;;5083931;28;20188;-79
2023/09/05 02:06:07;;;;;;;3.80;3.50;;;20.30;99.90;;;;;;5067906;28;20658;-80
2023/09/05 02:08:36;;;;;;;5.20;3.63;;;20.30;99.90;;;;;;5067116;28;20436;-80
2023/09/05 02:11:02;;;;;;;4.30;3.70;;;20.30;99.90;;;;;;5068051;28;20655;-82
2023/09/05 02:13:31;;;;;;;5.00;4.13;;;20.30;99.90;;;;;;5066833;28;20640;-80
2023/09/05 02:15:57;;;;;;;4.50;4.10;;;20.30;99.90;;;;;;5068004;28;20204;-80
2023/09/05 02:18:23;;;;;;;4.70;3.40;;;20.20;99.90;;;;;;5066043;28;20435;-80
2023/09/05 02:20:48;;;;;;;3.87;3.40;;;20.20;99.90;;;;;;5067888;28;20953;-86
2023/09/05 02:23:14;;;;;;;4.27;3.87;;;20.20;99.90;;;;;;5068152;28;20817;-85
2023/09/05 02:25:40;;;;;;;3.60;3.30;;;20.20;99.90;;;;;;5068445;28;20200;-86
2023/09/05 02:28:05;;;;;;;3.47;3.17;;;20.20;99.90;;;;;;5067061;28;20205;-85
2023/09/05 02:30:32;;;;;;;4.43;3.53;;;20.10;99.90;;;;;;5066261;28;20719;-80
2023/09/05 02:32:58;;;;;;;3.87;3.33;;;20.10;99.90;;;;;;5083126;28;20185;-80
2023/09/05 02:35:27;;;;;;;4.53;4.13;;;20.10;99.90;;;;;;5066308;28;20429;-86
2023/09/05 02:37:55;;;;;;;3.70;3.30;;;20.10;99.90;;;;;;5066474;28;20541;-79
2023/09/05 02:40:21;;;;;;;4.20;3.87;;;20.00;99.90;;;;;;5066131;28;21060;-80
2023/09/05 02:42:47;;;;;;;5.33;4.57;;;20.00;99.90;;;;;;5065797;28;20449;-80
2023/09/05 02:45:14;;;;;;;4.47;4.07;;;20.00;99.90;;;;;;5067640;28;20422;-86
2023/09/05 02:47:40;;;;;;;4.40;4.00;;;20.00;99.90;;;;;;5067899;28;20868;-86
2023/09/05 02:50:07;;;;;;;5.07;3.50;;;20.00;99.90;;;;;;5067539;28;20517;-86
2023/09/05 02:52:33;;;;;;;4.70;4.10;;;19.90;99.90;;;;;;5066132;28;20455;-84
2023/09/05 02:54:59;;;;;;;5.47;3.83;;;19.90;99.90;;;;;;5067498;28;20448;-80
2023/09/05 02:57:26;;;;;;;4.77;3.60;;;20.00;99.90;;;;;;5067368;28;20418;-86
2023/09/05 02:59:53;;;;;;;4.40;4.00;;;20.00;99.90;;;;;;5082883;28;20729;-80
2023/09/05 03:02:19;;;;;;;4.00;3.57;;;20.10;99.90;;;;;;5065608;28;20429;-79
2023/09/05 03:04:45;;;;;;;5.07;4.57;;;20.20;99.90;;;;;;5066136;28;20509;-80
2023/09/05 03:07:10;;;;;;;4.93;3.97;;;20.30;99.90;;;;;;5065550;28;20415;-82
2023/09/05 03:09:37;;;;;;;5.20;4.57;;;20.30;99.90;;;;;;5065667;28;20235;-79
2023/09/05 03:12:05;;;;;;;4.37;3.83;;;20.30;99.90;;;;;;5082208;28;20176;-85
2023/09/05 03:14:30;;;;;;;4.40;3.93;;;20.40;99.90;;;;;;5082484;28;20972;-79
2023/09/05 03:16:57;;;;;;;5.20;4.30;;;20.50;99.90;;;;;;5065491;28;20406;-79
2023/09/05 03:19:22;;;;;;;4.70;4.03;;;20.50;99.90;;;;;;5065686;28;20185;-86
2023/09/05 03:21:49;;;;;;;4.47;3.60;;;20.50;99.90;;;;;;5066732;28;20910;-79
2023/09/05 03:24:17;;;;;;;4.13;3.73;;;20.50;99.90;;;;;;5066718;28;20417;-79
2023/09/05 03:26:46;;;;;;;3.67;3.20;;;20.50;99.90;;;;;;5066820;28;20730;-86
2023/09/05 03:29:12;;;;;;;4.83;4.30;;;20.50;99.90;;;;;;5063968;28;20913;-80
2023/09/05 03:31:39;;;;;;;4.93;4.43;;;20.50;99.90;;;;;;5082210;28;20420;-86
2023/09/05 03:34:04;;;;;;;4.50;4.07;;;20.50;99.90;;;;;;5066777;28;20701;-80
2023/09/05 03:36:31;;;;;;;4.93;4.43;;;20.50;99.90;;;;;;5066293;28;20543;-80
2023/09/05 03:38:57;;;;;;;4.80;4.33;;;20.50;99.90;;;;;;5066425;28;20173;-80
2023/09/05 03:41:22;;;;;;;4.20;3.80;;;20.50;99.90;;;;;;5065162;28;20475;-86
2023/09/05 03:43:48;;;;;;;4.70;4.30;;;20.60;99.90;;;;;;5081626;28;20544;-86
2023/09/05 03:46:14;;;;;;;3.93;3.57;;;20.50;99.90;;;;;;5066302;28;20443;-86
2023/09/05 03:48:39;;;;;;;4.10;3.67;;;20.50;99.90;;;;;;5066156;28;22697;-86
2023/09/05 03:51:05;;;;;;;4.43;4.00;;;20.50;99.90;;;;;;5064262;28;20717;-79
2023/09/05 03:53:31;;;;;;;6.60;4.77;;;20.50;99.90;;;;;;5064847;28;20233;-85
2023/09/05 03:55:57;;;;;;;4.53;4.13;;;20.50;99.90;;;;;;5065843;28;20192;-84
2023/09/05 03:58:23;;;;;;;4.00;3.60;;;20.50;99.90;;;;;;5064851;28;20419;-86
2023/09/05 04:00:48;;;;;;;4.03;3.73;;;20.50;99.90;;;;;;5065516;28;20611;-86
2023/09/05 04:03:14;;;;;;;5.40;3.87;;;20.50;99.90;;;;;;5081463;28;20188;-80
2023/09/05 04:05:40;;;;;;;4.50;4.10;;;20.70;99.90;;;;;;5065413;28;20200;-80
2023/09/05 04:08:06;;;;;;;3.93;3.63;;;20.60;99.90;;;;;;5065804;28;20699;-86
2023/09/05 04:10:32;;;;;;;4.67;4.27;;;20.50;99.90;;;;;;5065561;28;20697;-85
2023/09/05 04:12:58;;;;;;;5.00;4.33;;;20.50;99.90;;;;;;5065730;28;20421;-80
2023/09/05 04:15:23;;;;;;;4.40;3.90;;;20.50;99.90;;;;;;5081536;28;20655;-80
2023/09/05 04:17:52;;;;;;;4.20;3.80;;;20.50;99.90;;;;;;5088980;28;20491;-80
2023/09/05 04:20:18;;;;;;;4.00;3.70;;;20.50;99.90;;;;;;5085320;28;20199;-80
2023/09/05 04:22:45;;;;;;;4.20;3.73;;;20.40;99.90;;;;;;5085840;28;20421;-85
2023/09/05 04:25:10;;;;;;;4.70;4.30;;;20.30;99.90;;;;;;5083557;28;20751;-85
2023/09/05 04:27:36;;;;;;;5.67;4.33;;;20.30;99.90;;;;;;5068351;28;20413;-79
2023/09/05 04:30:03;;;;;;;4.83;4.30;;;20.20;99.90;;;;;;5069881;28;20285;-79
2023/09/05 04:32:32;;;;;;;4.53;4.13;;;20.10;99.90;;;;;;5084356;28;20175;-86
2023/09/05 04:34:59;;;;;;;4.63;3.77;;;20.10;99.90;;;;;;5085544;28;20456;-80
2023/09/05 04:37:26;;;;;;;4.57;3.83;;;20.10;99.90;;;;;;5083903;28;20416;-85
2023/09/05 04:39:52;;;;;;;4.20;3.80;;;20.10;99.90;;;;;;5083227;28;20536;-80
2023/09/05 04:42:17;;;;;;;4.83;3.43;;;20.10;99.90;;;;;;5082102;28;20577;-85
2023/09/05 04:44:43;;;;;;;5.10;4.17;;;20.10;99.90;;;;;;5080547;28;20503;-86
2023/09/05 04:47:22;;;;;;;4.30;3.90;;;20.10;99.90;;;;;;5084682;28;20200;-80
2023/09/05 04:49:51;;;;;;;4.80;3.97;;;20.10;99.90;;;;;;5083532;28;20660;-86
2023/09/05 04:52:20;;;;;;;5.77;3.77;;;20.00;99.90;;;;;;5076053;28;20485;-86
2023/09/05 04:54:46;;;;;;;4.80;4.30;;;20.00;99.90;;;;;;5083165;28;20451;-80
2023/09/05 04:57:16;;;;;;;6.23;4.97;;;20.00;99.90;;;;;;5082879;28;20805;-79
2023/09/05 04:59:47;;;;;;;4.80;4.40;;;19.90;99.90;;;;;;5083560;28;20467;-84
2023/09/05 05:02:14;;;;;;;4.50;4.10;;;20.00;99.90;;;;;;5083973;28;20423;-79
2023/09/05 05:04:40;;;;;;;4.73;4.20;;;20.10;99.90;;;;;;5081386;28;20451;-85
2023/09/05 05:07:10;;;;;;;5.03;3.90;;;20.20;99.90;;;;;;5077174;28;21081;-79
2023/09/05 05:09:36;;;;;;;6.00;4.30;;;20.30;99.90;;;;;;5081459;28;20465;-86
2023/09/05 05:12:02;;;;;;;4.87;4.47;;;20.50;99.90;;;;;;5080993;28;20778;-79
2023/09/05 05:14:28;;;;;;;5.37;3.97;;;20.50;99.90;;;;;;5081478;28;20421;-85
2023/09/05 05:16:54;;;;;;;5.13;3.80;;;20.60;99.90;;;;;;5082287;28;20481;-86
2023/09/05 05:19:21;;;;;;;4.60;4.10;;;20.60;99.90;;;;;;5081628;28;20523;-87
2023/09/05 05:21:48;;;;;;;4.17;3.77;;;20.60;99.90;;;;;;5081075;28;20785;-80
2023/09/05 05:24:14;;;;;;;5.50;4.90;;;20.60;99.90;;;;;;5081274;28;20428;-80
2023/09/05 05:26:39;;;;;;;5.27;4.10;;;20.60;99.90;;;;;;5076345;28;20884;-81
2023/09/05 05:29:05;;;;;;;3.97;3.57;;;20.60;99.90;;;;;;5074515;28;20496;-88
2023/09/05 05:31:33;;;;;;;5.13;4.63;;;20.60;99.90;;;;;;5079092;28;20204;-89
2023/09/05 05:33:59;;;;;;;4.60;4.20;;;20.60;99.90;;;;;;5077443;28;20677;-90
2023/09/05 05:36:26;;;;;;;4.87;4.40;;;20.60;99.90;;;;;;5074946;28;20596;-89
2023/09/05 05:38:52;;;;;;;4.07;3.67;;;20.70;99.90;;;;;;5074219;28;20577;-88
2023/09/05 05:41:18;;;;;;;4.60;4.20;;;20.70;99.90;;;;;;5070989;28;21069;-80
2023/09/05 05:43:44;;;;;;;4.90;3.87;;;20.70;99.90;;;;;;5074078;28;20427;-81
2023/09/05 05:46:10;;;;;;;4.20;3.80;;;20.60;99.90;;;;;;5076175;28;20264;-81
2023/09/05 05:48:36;;;;;;;4.43;3.70;;;20.70;99.90;;;;;;5076012;28;20449;-81
2023/09/05 05:51:02;;;;;;;4.87;4.40;;;20.70;99.90;;;;;;5076419;28;20936;-82
2023/09/05 05:53:28;;;;;;;5.87;4.50;;;20.70;99.90;;;;;;5073727;28;20523;-90
2023/09/05 05:55:54;;;;;;;4.10;3.60;;;20.80;99.90;;;;;;5074122;28;20446;-91
2023/09/05 05:58:20;;;;;;;5.40;3.73;;;20.90;99.90;;;;;;5078250;28;20434;-82
2023/09/05 06:00:50;;;;;;;4.90;4.30;;;20.90;99.90;;;;;;5075276;28;20432;-81
2023/09/05 06:03:23;;;;;;;64.43;41.23;;;20.90;99.90;;;;;;5081552;28;20987;-81
2023/09/05 06:05:50;;;;;;;5.20;4.70;;;21.00;99.90;;;;;;5079360;28;20440;-82
2023/09/05 06:08:16;;;;;;;5.60;5.10;;;21.00;99.90;;;;;;5080607;28;20933;-90
2023/09/05 06:10:42;;;;;;;4.47;3.80;;;21.00;99.90;;;;;;5073282;28;20465;-85
2023/09/05 06:13:09;;;;;;;6.00;4.40;;;21.00;99.90;;;;;;5074724;28;20414;-90
2023/09/05 06:15:35;;;;;;;4.80;4.40;;;21.10;99.90;;;;;;5077341;28;20723;-88
2023/09/05 06:18:02;;;;;;;5.17;4.03;;;21.20;99.90;;;;;;5084556;28;20409;-82
2023/09/05 06:20:32;;;;;;;4.20;3.80;;;21.20;99.90;;;;;;5084352;28;20487;-90
2023/09/05 06:22:58;;;;;;;4.07;3.73;;;21.30;99.90;;;;;;5079209;28;20921;-81
2023/09/05 06:25:24;;;;;;;4.50;4.07;;;21.30;99.90;;;;;;5076511;28;20757;-93
2023/09/05 06:27:50;;;;;;;4.33;3.93;;;21.30;99.90;;;;;;5084370;28;20389;-90
2023/09/05 06:30:16;;;;;;;8.67;4.10;;;21.40;99.90;;;;;;5084750;28;20469;-92
2023/09/05 06:32:43;;;;;;;4.93;4.43;;;21.40;99.90;;;;;;5081822;28;20795;-85
2023/09/05 06:35:09;;;;;;;5.20;3.83;;;21.40;99.90;;;;;;5080435;28;20452;-87
2023/09/05 06:37:37;;;;;;;3.97;3.57;;;21.50;99.90;;;;;;5079244;28;20464;-81
2023/09/05 06:40:09;;;;;;;5.43;5.03;;;21.50;99.90;;;;;;5082020;28;20830;-81
2023/09/05 06:42:38;;;;;;;4.57;3.97;;;21.60;99.90;;;;;;5081309;28;20918;-81
2023/09/05 06:45:05;;;;;;;3.93;3.53;;;21.60;99.90;;;;;;5082694;28;20541;-82
2023/09/05 06:47:31;;;;;;;3.73;3.43;;;21.70;99.90;;;;;;5080099;28;20508;-87
2023/09/05 06:49:56;;;;;;;3.77;3.47;;;21.70;99.90;;;;;;5079861;28;20898;-87
2023/09/05 06:52:22;;;;;;;3.93;3.63;;;21.70;99.90;;;;;;5079958;28;20237;-87
2023/09/05 06:54:48;;;;;;;3.63;3.30;;;21.70;99.90;;;;;;5082569;28;20192;-86
2023/09/05 06:57:15;;;;;;;193.90;99.67;;;21.80;99.90;;;;;;5081938;28;20185;-86
2023/09/05 06:59:41;;;;;;;7.30;5.93;;;21.80;99.90;;;;;;5083923;28;20201;-86
2023/09/05 07:02:07;;;;;;;5.50;4.30;;;21.90;99.90;;;;;;5085659;28;20819;-82
2023/09/05 07:04:34;;;;;;;5.10;3.90;;;22.00;99.90;;;;;;5084131;28;20208;-81
2023/09/05 07:07:03;;;;;;;4.17;3.77;;;22.00;99.90;;;;;;5082445;28;20516;-81
2023/09/05 07:09:29;;;;;;;4.13;3.83;;;22.10;99.90;;;;;;5079137;28;20469;-81
2023/09/05 07:11:54;;;;;;;4.03;3.60;;;22.20;99.90;;;;;;5083025;28;20800;-86
2023/09/05 07:14:20;;;;;;;4.63;4.23;;;22.30;99.90;;;;;;5087133;28;20181;-81
2023/09/05 07:16:45;;;;;;;4.57;3.70;;;22.30;99.90;;;;;;5099951;28;20208;-83
2023/09/05 07:19:11;;;;;;;4.33;3.50;;;22.30;99.90;;;;;;5077394;28;20484;-86
2023/09/05 07:21:40;;;;;;;3.60;3.30;;;22.50;99.90;;;;;;5076400;28;20205;-86
2023/09/05 07:24:09;;;;;;;4.00;3.63;;;22.50;99.90;;;;;;5075021;28;20419;-81
2023/09/05 07:26:36;;;;;;;4.43;4.03;;;22.60;99.90;;;;;;5077877;28;20936;-81
2023/09/05 07:29:02;;;;;;;5.27;3.80;;;22.70;99.90;;;;;;5092128;28;20425;-82
2023/09/05 07:31:31;;;;;;;3.43;3.13;;;22.70;99.90;;;;;;5077697;28;20918;-87
2023/09/05 07:33:57;;;;;;;4.10;3.70;;;22.70;99.90;;;;;;5076318;28;20456;-82
2023/09/05 07:36:23;;;;;;;4.60;3.57;;;22.80;99.90;;;;;;5072955;28;20454;-87
2023/09/05 07:38:49;;;;;;;3.97;3.67;;;22.90;99.90;;;;;;5092868;28;20433;-87
2023/09/05 07:41:14;;;;;;;3.70;3.40;;;22.90;99.90;;;;;;5073938;28;20285;-88
2023/09/05 07:43:40;;;;;;;4.20;3.80;;;23.00;99.90;;;;;;5079435;28;20369;-81
2023/09/05 07:46:06;;;;;;;3.73;3.43;;;23.10;99.90;;;;;;5076160;28;20206;-87
2023/09/05 07:48:32;;;;;;;4.83;3.80;;;23.20;99.90;;;;;;5079735;28;20427;-82
2023/09/05 07:51:05;;;;;;;3.80;3.40;;;23.20;99.90;;;;;;5082140;28;20219;-86
2023/09/05 07:53:35;;;;;;;3.70;3.40;;;23.30;99.90;;;;;;5079407;28;20210;-82
2023/09/05 07:56:01;;;;;;;3.40;3.10;;;23.40;99.90;;;;;;5081790;28;20728;-83
2023/09/05 07:58:27;;;;;;;3.37;3.07;;;23.40;99.90;;;;;;5076177;28;20620;-82
2023/09/05 08:00:53;;;;;;;3.67;3.37;;;23.40;99.90;;;;;;5062186;28;20496;-82
2023/09/05 08:03:20;;;;;;;3.47;3.17;;;23.50;99.90;;;;;;5066284;28;20782;-82
2023/09/05 08:05:46;;;;;;;3.73;3.37;;;23.60;99.90;;;;;;5065549;28;20446;-87
2023/09/05 08:08:13;;;;;;;4.37;3.43;;;23.80;99.90;;;;;;5081055;28;20622;-87
2023/09/05 08:10:39;;;;;;;3.90;3.40;;;23.80;99.90;;;;;;5077887;28;20476;-87
2023/09/05 08:13:06;;;;;;;3.33;3.10;;;23.80;99.90;;;;;;5079132;28;20778;-81
2023/09/05 08:15:32;;;;;;;3.43;3.00;;;23.90;99.90;;;;;;5080232;28;20199;-82
2023/09/05 08:17:58;;;;;;;3.80;3.40;;;24.00;99.90;;;;;;5078038;28;20428;-87
2023/09/05 08:20:23;;;;;;;3.60;3.30;;;24.10;99.90;;;;;;5080448;28;20512;-87
2023/09/05 08:22:49;;;;;;;3.37;2.70;;;24.10;99.90;;;;;;5076714;28;20205;-87
2023/09/05 08:25:15;;;;;;;3.07;2.87;;;24.10;99.90;;;;;;5080375;28;20361;-88
2023/09/05 08:27:42;;;;;;;4.80;3.03;;;24.20;99.90;;;;;;5077866;28;20343;-82
2023/09/05 08:30:11;;;;;;;3.30;3.00;;;24.30;99.90;;;;;;5076867;28;20491;-83
2023/09/05 08:32:38;;;;;;;3.50;3.20;;;24.30;99.90;;;;;;5076316;28;20416;-82
2023/09/05 08:35:09;;;;;;;3.13;2.93;;;24.30;99.90;;;;;;5075678;28;20534;-87
2023/09/05 08:37:35;;;;;;;3.20;2.70;;;24.50;99.90;;;;;;5077997;28;20593;-87
2023/09/05 08:40:01;;;;;;;4.20;3.20;;;24.70;99.90;;;;;;5071544;28;20727;-87
2023/09/05 08:42:32;;;;;;;2.70;2.50;;;25.30;99.90;;;;;;5076546;28;20413;-82
2023/09/05 08:44:59;;;;;;;3.83;3.53;;;25.90;99.90;;;;;;5074488;28;20444;-82
2023/09/05 08:47:29;;;;;;;2.70;2.50;;;26.80;99.90;;;;;;5074457;28;21011;-82
2023/09/05 08:49:55;;;;;;;3.07;2.80;;;27.60;99.90;;;;;;5072811;28;20507;-88
2023/09/05 08:52:27;;;;;;;2.90;2.70;;;28.10;99.90;;;;;;5076896;28;20960;-82
2023/09/05 08:54:53;;;;;;;3.23;2.93;;;28.10;99.90;;;;;;5060999;28;20548;-82
2023/09/05 08:57:20;;;;;;;2.87;2.67;;;28.20;99.90;;;;;;5071327;28;20433;-82
2023/09/05 08:59:45;;;;;;;2.67;2.47;;;28.10;99.90;;;;;;5066123;28;20549;-87
2023/09/05 09:02:16;;;;;;;4.57;2.73;;;27.90;99.90;;;;;;5069493;28;20504;-85
2023/09/05 09:04:52;;;;;;;2.13;1.93;;;27.50;99.90;;;;;;5079536;28;20696;-83
2023/09/05 09:07:18;;;;;;;2.87;2.67;;;27.30;99.90;;;;;;5076723;28;20711;-86
2023/09/05 09:09:46;;;;;;;3.00;2.80;;;27.20;99.90;;;;;;5078486;28;20704;-82
2023/09/05 09:12:11;;;;;;;2.47;2.27;;;26.90;99.90;;;;;;5078175;28;20260;-82
2023/09/05 09:14:37;;;;;;;2.60;2.40;;;27.00;99.90;;;;;;5079841;28;21080;-83
2023/09/05 09:17:04;;;;;;;2.90;2.70;;;26.80;99.90;;;;;;5076282;28;20360;-86
2023/09/05 09:19:37;;;;;;;4.07;2.67;;;26.50;99.90;;;;;;5096549;28;20291;-82
2023/09/05 09:22:03;;;;;;;2.73;2.53;;;26.40;99.90;;;;;;5076992;28;20445;-82
2023/09/05 09:24:33;;;;;;;2.73;2.53;;;26.40;99.90;;;;;;5079799;28;20432;-82
2023/09/05 09:27:04;;;;;;;3.00;2.33;;;26.20;99.90;;;;;;5079781;28;20419;-82
2023/09/05 09:29:33;;;;;;;2.80;2.60;;;26.30;99.90;;;;;;5079401;28;20542;-87
2023/09/05 09:32:00;;;;;;;2.20;2.10;;;26.20;99.90;;;;;;5081414;28;20424;-87
2023/09/05 09:34:26;;;;;;;2.60;2.40;;;26.40;99.90;;;;;;5082690;28;21108;-87
2023/09/05 09:36:52;;;;;;;2.70;2.50;;;26.40;99.90;;;;;;5081298;28;20636;-86
2023/09/05 09:39:18;;;;;;;2.57;2.37;;;26.40;99.90;;;;;;5081062;28;20180;-86
2023/09/05 09:41:46;;;;;;;2.40;2.20;;;26.40;99.90;;;;;;5080383;28;20669;-86
2023/09/05 09:44:30;;;;;;;2.47;2.27;;;26.50;99.90;;;;;;5079369;28;20468;-87
2023/09/05 09:46:57;;;;;;;3.10;2.80;;;26.60;99.70;;;;;;5076742;28;20410;-87
2023/09/05 09:49:24;;;;;;;3.37;3.17;;;26.70;99.90;;;;;;5081210;28;21285;-87
2023/09/05 09:51:54;;;;;;;3.10;2.40;;;26.70;99.90;;;;;;5076781;28;20739;-87
2023/09/05 09:54:29;;;;;;;2.97;2.77;;;26.80;99.90;;;;;;5071679;28;20535;-87
2023/09/05 09:57:05;;;;;;;3.07;2.77;;;26.70;99.90;;;;;;5088364;28;21291;-83
2023/09/05 09:59:36;;;;;;;3.00;2.80;;;26.80;99.90;;;;;;5082952;28;20421;-87
2023/09/05 10:02:08;;;;;;;2.40;2.20;;;26.80;99.90;;;;;;5083655;28;20448;-86
2023/09/05 10:04:35;;;;;;;2.93;2.73;;;26.70;99.90;;;;;;5075024;28;20532;-86
2023/09/05 10:07:06;;;;;;;2.67;2.37;;;26.70;99.90;;;;;;5082462;28;20436;-81
2023/09/05 10:09:35;;;;;;;2.57;2.37;;;26.70;99.90;;;;;;5083983;28;20476;-81
2023/09/05 10:12:02;;;;;;;2.77;2.57;;;26.70;99.90;;;;;;5083407;28;20444;-85
2023/09/05 10:14:30;;;;;;;3.00;2.70;;;26.90;99.90;;;;;;5097461;28;20491;-86
2023/09/05 10:16:58;;;;;;;2.60;2.40;;;27.00;99.90;;;;;;5076494;28;20428;-81
2023/09/05 10:19:25;;;;;;;2.87;2.07;;;27.00;99.90;;;;;;5082247;28;20418;-81
2023/09/05 10:21:54;;;;;;;2.57;2.37;;;27.10;99.50;;;;;;5082995;28;20447;-80
2023/09/05 10:24:20;;;;;;;2.70;2.50;;;27.20;99.50;;;;;;5083236;28;20438;-85
2023/09/05 10:26:47;;;;;;;2.33;2.20;;;27.20;98.80;;;;;;5071703;28;20422;-81
2023/09/05 10:29:42;;;;;;;2.60;2.40;;;27.20;99.30;;;;;;5071004;28;20686;-86
2023/09/05 10:32:09;;;;;;;2.50;2.30;;;27.20;99.00;;;;;;5075254;28;20990;-82
2023/09/05 10:34:47;;;;;;;2.50;2.30;;;27.20;99.40;;;;;;5070518;28;20456;-81
2023/09/05 10:37:14;;;;;;;2.47;2.27;;;27.00;99.90;;;;;;5088957;28;20434;-82
2023/09/05 10:39:46;;;;;;;2.77;2.57;;;27.10;99.20;;;;;;5074966;28;20976;-81
2023/09/05 10:42:12;;;;;;;2.00;1.90;;;27.20;98.70;;;;;;5074428;28;20429;-81
2023/09/05 10:44:47;;;;;;;4.03;3.20;;;27.20;99.40;;;;;;5071014;28;20662;-82
2023/09/05 10:47:33;;;;;;;2.67;2.47;;;27.00;99.50;;;;;;5074117;28;20506;-85
2023/09/05 10:50:07;;;;;;;2.90;2.70;;;27.20;99.50;;;;;;5070167;28;20494;-89
2023/09/05 10:52:33;;;;;;;38.97;24.80;;;27.10;99.90;;;;;;5069371;28;20685;-88
2023/09/05 10:55:29;;;;;;;3.00;2.80;;;27.20;99.90;;;;;;5071225;28;20450;-81
2023/09/05 10:57:58;;;;;;;2.27;2.07;;;27.20;99.90;;;;;;5058559;28;20417;-81
2023/09/05 11:00:28;;;;;;;2.60;2.40;;;26.90;99.90;;;;;;5069570;28;20446;-86
2023/09/05 11:02:55;;;;;;;2.10;2.00;;;26.90;99.40;;;;;;5074119;28;20582;-82
2023/09/05 11:05:24;;;;;;;2.17;2.07;;;26.90;99.90;;;;;;5099991;27;20815;-82
2023/09/05 11:07:50;;;;;;;1.70;1.60;;;27.10;99.10;;;;;;5075557;28;20796;-86
2023/09/05 11:10:31;;;;;;;2.60;2.40;;;27.00;99.90;;;;;;5074967;28;20686;-81
2023/09/05 11:13:06;;;;;;;4.50;3.03;;;27.10;99.50;;;;;;5075769;28;20422;-86
2023/09/05 11:15:36;;;;;;;5.10;3.17;;;27.10;99.70;;;;;;5071866;28;20575;-84
2023/09/05 11:18:06;;;;;;;2.27;2.07;;;27.10;99.90;;;;;;5078200;28;20430;-81
2023/09/05 11:20:50;;;;;;;2.60;2.40;;;27.10;99.90;;;;;;5079168;28;20464;-82
2023/09/05 11:23:28;;;;;;;2.43;2.30;;;27.30;98.70;;;;;;5080956;28;20520;-86
2023/09/05 11:26:03;;;;;;;2.10;1.90;;;27.40;98.30;;;;;;5076890;28;20459;-81
2023/09/05 11:28:29;;;;;;;2.17;2.00;;;27.50;96.80;;;;;;5073072;28;20424;-86
2023/09/05 11:30:57;;;;;;;2.20;2.00;;;27.50;96.50;;;;;;5081051;28;20536;-81
2023/09/05 11:33:25;;;;;;;2.10;2.00;;;27.50;95.90;;;;;;5081280;28;20182;-81
2023/09/05 11:35:51;;;;;;;2.33;2.13;;;27.50;96.50;;;;;;5080300;28;20445;-86
2023/09/05 11:38:19;;;;;;;1.80;1.70;;;27.50;97.70;;;;;;5081612;28;20711;-82
2023/09/05 11:40:52;;;;;;;2.17;1.97;;;27.50;98.30;;;;;;5073263;28;20763;-86
2023/09/05 11:43:18;;;;;;;1.97;1.87;;;27.60;97.50;;;;;;5074544;28;20423;-86
2023/09/05 11:45:45;;;;;;;2.07;1.97;;;27.70;96.60;;;;;;5073839;28;20917;-82
2023/09/05 11:48:14;;;;;;;2.40;2.30;;;27.70;96.60;;;;;;5070363;28;20182;-82
2023/09/05 11:50:42;;;;;;;1.97;1.87;;;27.70;97.80;;;;;;5071801;28;21016;-81
2023/09/05 11:53:11;;;;;;;2.43;2.23;;;27.50;98.70;;;;;;5086686;28;20439;-86
2023/09/05 11:55:38;;;;;;;1.87;1.77;;;27.50;96.50;;;;;;5075529;28;20449;-81
2023/09/05 11:58:07;;;;;;;2.10;2.00;;;27.50;98.50;;;;;;5089122;27;20497;-82
2023/09/05 12:00:40;;;;;;;2.57;2.00;;;27.50;97.60;;;;;;5074199;28;20883;-86
2023/09/05 12:03:08;;;;;;;2.00;1.90;;;27.60;97.30;;;;;;5076797;28;20484;-81
2023/09/05 12:05:37;;;;;;;2.40;2.20;;;27.80;96.80;;;;;;5076408;28;20879;-86
2023/09/05 12:08:06;;;;;;;2.43;2.33;;;27.80;97.20;;;;;;5091032;28;20843;-81
2023/09/05 12:10:40;;;;;;;2.10;1.90;;;27.90;97.40;;;;;;5081131;28;21049;-81
2023/09/05 12:13:07;;;;;;;1.70;1.60;;;27.70;98.00;;;;;;5080432;28;20781;-81
2023/09/05 12:15:34;;;;;;;2.43;2.23;;;27.70;97.70;;;;;;5080986;28;20986;-86
2023/09/05 12:18:05;;;;;;;2.33;2.13;;;27.50;98.60;;;;;;5078419;28;20533;-86
2023/09/05 12:20:35;;;;;;;2.63;1.83;;;27.60;97.60;;;;;;5095480;28;20444;-81
2023/09/05 12:23:05;;;;;;;1.97;1.87;;;27.80;97.20;;;;;;5079622;28;20460;-85
2023/09/05 12:25:31;;;;;;;1.73;1.50;;;27.90;95.40;;;;;;5096390;28;20432;-82
2023/09/05 12:28:16;;;;;;;3.10;2.80;;;28.00;95.60;;;;;;5082002;28;20420;-81
2023/09/05 12:30:42;;;;;;;2.50;2.30;;;28.10;95.00;;;;;;5065204;28;21006;-82
2023/09/05 12:33:08;;;;;;;1.90;1.80;;;28.10;94.10;;;;;;5059523;28;20666;-81
2023/09/05 12:35:34;;;;;;;2.20;2.10;;;28.10;94.90;;;;;;5072995;28;20444;-82
2023/09/05 12:38:04;;;;;;;1.73;1.63;;;28.00;95.10;;;;;;5068102;28;20181;-80
2023/09/05 12:40:32;;;;;;;1.70;1.60;;;28.10;95.40;;;;;;5068206;28;20780;-82
2023/09/05 12:42:59;;;;;;;1.97;1.87;;;28.10;94.80;;;;;;5068661;28;20478;-81
2023/09/05 12:45:25;;;;;;;2.40;1.70;;;28.20;94.70;;;;;;5068625;28;20466;-81
2023/09/05 12:47:51;;;;;;;2.00;1.80;;;28.30;95.20;;;;;;5072784;28;20413;-81